createdAt,value
2023-04-01T00:00:06.716Z,7.84
2023-04-01T00:02:13.347Z,7.85
2023-04-01T00:04:19.800Z,7.78
2023-04-01T00:06:26.227Z,7.72
2023-04-01T00:08:33.207Z,7.68
2023-04-01T00:10:39.912Z,7.66
2023-04-01T00:12:46.492Z,7.56
2023-04-01T00:14:53.512Z,7.45
2023-04-01T00:17:00.226Z,7.41
2023-04-01T00:19:07.512Z,7.42
2023-04-01T00:21:14.244Z,7.36
2023-04-01T00:23:20.680Z,7.32
2023-04-01T00:25:27.416Z,7.34
2023-04-01T00:27:35.742Z,7.51
2023-04-01T00:29:42.441Z,7.73
2023-04-01T00:31:49.224Z,7.8
2023-04-01T00:33:56.044Z,7.86
2023-04-01T00:36:03.108Z,7.87
2023-04-01T00:38:09.895Z,7.81
2023-04-01T00:40:16.790Z,7.73
2023-04-01T00:42:23.013Z,7.62
2023-04-01T00:44:29.550Z,7.62
2023-04-01T00:46:35.850Z,7.56
2023-04-01T00:48:42.324Z,7.47
2023-04-01T00:50:48.918Z,7.34
2023-04-01T00:52:55.956Z,7.21
2023-04-01T00:55:02.293Z,7.15
2023-04-01T00:57:08.458Z,7.11
2023-04-01T00:59:15.033Z,7.11
2023-04-01T01:01:21.993Z,7.09
2023-04-01T01:03:29.078Z,7.04
2023-04-01T01:05:42.698Z,6.98
2023-04-01T01:07:57.276Z,6.93
2023-04-01T01:10:04.375Z,6.89
2023-04-01T01:12:10.847Z,6.83
2023-04-01T01:14:17.230Z,6.81
2023-04-01T01:16:23.774Z,6.84
2023-04-01T01:18:31.191Z,6.81
2023-04-01T01:20:37.700Z,6.85
2023-04-01T01:22:44.269Z,6.93
2023-04-01T01:24:50.854Z,7.06
2023-04-01T01:27:00.761Z,7.12
2023-04-01T01:29:07.403Z,7.21
2023-04-01T01:31:14.064Z,7.3
2023-04-01T01:33:20.848Z,7.33
2023-04-01T01:35:27.491Z,7.34
2023-04-01T01:37:34.622Z,7.31
2023-04-01T01:39:41.020Z,7.31
2023-04-01T01:41:48.267Z,7.38
2023-04-01T01:43:55.033Z,7.41
2023-04-01T01:46:01.738Z,7.42
2023-04-01T01:48:08.825Z,7.46
2023-04-01T01:50:15.654Z,7.46
2023-04-01T01:52:21.923Z,7.5
2023-04-01T01:54:28.933Z,7.57
2023-04-01T01:56:35.146Z,7.56
2023-04-01T01:58:42.477Z,7.58
2023-04-01T02:00:51.538Z,7.57
2023-04-01T02:02:58.599Z,7.53
2023-04-01T02:05:05.426Z,7.5
2023-04-01T02:07:11.687Z,7.47
2023-04-01T02:09:18.291Z,7.42
2023-04-01T02:11:25.318Z,7.38
2023-04-01T02:13:31.580Z,7.36
2023-04-01T02:15:38.757Z,7.32
2023-04-01T02:17:45.490Z,7.26
2023-04-01T02:19:52.096Z,7.3
2023-04-01T02:21:58.712Z,7.37
2023-04-01T02:24:05.255Z,7.33
2023-04-01T02:26:12.139Z,7.15
2023-04-01T02:28:18.473Z,7.04
2023-04-01T02:30:25.019Z,6.91
2023-04-01T02:32:32.268Z,6.8
2023-04-01T02:34:38.829Z,6.88
2023-04-01T02:36:45.060Z,6.81
2023-04-01T02:38:51.791Z,6.76
2023-04-01T02:40:58.237Z,6.7
2023-04-01T02:43:04.998Z,6.66
2023-04-01T02:45:11.785Z,6.67
2023-04-01T02:47:19.288Z,6.66
2023-04-01T02:49:25.801Z,6.77
2023-04-01T02:51:32.667Z,6.82
2023-04-01T02:53:39.715Z,6.98
2023-04-01T02:55:47.403Z,7.06
2023-04-01T02:57:53.867Z,7.06
2023-04-01T03:00:00.863Z,7.01
2023-04-01T03:02:08.133Z,6.94
2023-04-01T03:04:18.539Z,6.89
2023-04-01T03:06:25.051Z,6.76
2023-04-01T03:08:32.064Z,6.71
2023-04-01T03:10:38.824Z,6.7
2023-04-01T03:12:45.331Z,6.87
2023-04-01T03:14:52.555Z,7.09
2023-04-01T03:16:58.696Z,7.08
2023-04-01T03:19:05.597Z,7.16
2023-04-01T03:21:12.098Z,7.31
2023-04-01T03:23:18.658Z,7.3
2023-04-01T03:25:26.382Z,7.31
2023-04-01T03:27:33.799Z,7.29
2023-04-01T03:29:40.763Z,7.39
2023-04-01T03:31:47.256Z,7.33
2023-04-01T03:33:54.140Z,7.44
2023-04-01T03:36:00.669Z,7.48
2023-04-01T03:38:07.732Z,7.47
2023-04-01T03:40:14.417Z,7.48
2023-04-01T03:42:20.986Z,7.45
2023-04-01T03:44:27.819Z,7.52
2023-04-01T03:46:34.077Z,7.5
2023-04-01T03:48:42.830Z,7.52
2023-04-01T03:50:49.449Z,7.43
2023-04-01T03:52:56.057Z,7.43
2023-04-01T03:55:03.274Z,7.43
2023-04-01T03:57:10.349Z,7.49
2023-04-01T03:59:17.748Z,7.51
2023-04-01T04:01:25.018Z,7.46
2023-04-01T04:03:32.461Z,7.47
2023-04-01T04:05:39.660Z,7.48
2023-04-01T04:07:46.074Z,7.55
2023-04-01T04:09:52.554Z,7.54
2023-04-01T04:11:59.532Z,7.53
2023-04-01T04:14:06.498Z,7.53
2023-04-01T04:16:12.997Z,7.52
2023-04-01T04:18:19.967Z,7.54
2023-04-01T04:20:26.662Z,7.58
2023-04-01T04:22:33.005Z,7.57
2023-04-01T04:24:39.633Z,7.6
2023-04-01T04:26:46.696Z,7.63
2023-04-01T04:28:53.604Z,7.69
2023-04-01T04:31:01.526Z,7.65
2023-04-01T04:33:08.527Z,7.67
2023-04-01T04:35:15.547Z,7.71
2023-04-01T04:37:22.172Z,7.75
2023-04-01T04:39:28.412Z,7.8
2023-04-01T04:41:36.589Z,7.81
2023-04-01T04:43:43.986Z,7.9
2023-04-01T04:45:51.997Z,7.98
2023-04-01T04:47:59.135Z,7.93
2023-04-01T04:50:06.752Z,7.97
2023-04-01T04:52:13.751Z,8.01
2023-04-01T04:54:22.388Z,8.07
2023-04-01T04:56:29.677Z,8.06
2023-04-01T04:58:36.034Z,8.07
2023-04-01T05:00:42.880Z,8.08
2023-04-01T05:02:49.274Z,8.07
2023-04-01T05:04:57.584Z,8.08
2023-04-01T05:07:04.520Z,8.14
2023-04-01T05:09:11.301Z,8.16
2023-04-01T05:11:17.804Z,8.17
2023-04-01T05:13:24.187Z,8.16
2023-04-01T05:15:30.488Z,8.18
2023-04-01T05:17:37.840Z,8.13
2023-04-01T05:19:44.473Z,8.14
2023-04-01T05:21:50.841Z,8.15
2023-04-01T05:23:57.549Z,8.15
2023-04-01T05:26:04.269Z,8.21
2023-04-01T05:28:10.503Z,8.37
2023-04-01T05:30:16.957Z,8.42
2023-04-01T05:32:23.330Z,8.45
2023-04-01T05:34:30.209Z,8.5
2023-04-01T05:36:36.965Z,8.55
2023-04-01T05:38:43.486Z,8.57
2023-04-01T05:40:50.818Z,8.71
2023-04-01T05:42:57.774Z,8.7
2023-04-01T05:45:05.424Z,8.68
2023-04-01T05:47:12.940Z,8.77
2023-04-01T05:49:19.774Z,8.82
2023-04-01T05:51:31.113Z,8.96
2023-04-01T05:53:37.926Z,9.1
2023-04-01T05:55:45.140Z,9.28
2023-04-01T05:57:53.231Z,9.54
2023-04-01T06:00:00.791Z,9.4
2023-04-01T06:02:08.628Z,9.6
2023-04-01T06:04:16.611Z,9.78
2023-04-01T06:06:23.930Z,9.74
2023-04-01T06:08:31.400Z,9.7
2023-04-01T06:10:39.045Z,9.66
2023-04-01T06:12:50.322Z,9.74
2023-04-01T06:14:57.253Z,9.73
2023-04-01T06:17:04.440Z,9.65
2023-04-01T06:19:11.766Z,9.74
2023-04-01T06:21:17.781Z,9.81
2023-04-01T06:23:24.483Z,9.59
2023-04-01T06:25:32.568Z,9.66
2023-04-01T06:27:41.028Z,9.71
2023-04-01T06:29:48.894Z,9.72
2023-04-01T06:31:57.173Z,9.89
2023-04-01T06:34:04.169Z,9.93
2023-04-01T06:36:11.131Z,10.01
2023-04-01T06:38:19.150Z,10.04
2023-04-01T06:40:25.799Z,10.27
2023-04-01T06:42:33.612Z,10.4
2023-04-01T06:44:42.001Z,10.49
2023-04-01T06:46:49.774Z,10.73
2023-04-01T06:48:57.865Z,10.72
2023-04-01T06:51:05.706Z,10.7
2023-04-01T06:53:13.544Z,10.67
2023-04-01T06:55:22.781Z,10.81
2023-04-01T06:57:29.946Z,10.73
2023-04-01T06:59:38.211Z,10.46
2023-04-01T07:01:46.536Z,10.39
2023-04-01T07:03:54.943Z,10.2
2023-04-01T07:06:02.927Z,10.13
2023-04-01T07:08:11.232Z,10.09
2023-04-01T07:10:20.527Z,10.06
2023-04-01T07:12:36.825Z,10.36
2023-04-01T07:14:47.864Z,10.66
2023-04-01T07:16:55.607Z,10.55
2023-04-01T07:19:03.708Z,10.57
2023-04-01T07:21:11.127Z,10.65
2023-04-01T07:23:18.753Z,10.75
2023-04-01T07:25:27.163Z,10.85
2023-04-01T07:27:34.192Z,10.49
2023-04-01T07:29:40.519Z,10.54
2023-04-01T07:31:47.177Z,11
2023-04-01T07:33:58.158Z,10.91
2023-04-01T07:36:06.455Z,11.09
2023-04-01T07:38:19.271Z,11.01
2023-04-01T07:40:35.363Z,11.15
2023-04-01T07:42:59.632Z,10.86
2023-04-01T07:45:20.357Z,10.51
2023-04-01T07:47:42.680Z,10.63
2023-04-01T07:49:51.129Z,10.6
2023-04-01T07:52:08.250Z,10.64
2023-04-01T07:54:15.901Z,10.75
2023-04-01T07:56:34.965Z,10.97
2023-04-01T07:58:43.039Z,10.84
2023-04-01T08:00:58.777Z,11.09
2023-04-01T08:03:08.795Z,10.92
2023-04-01T08:05:17.772Z,10.79
2023-04-01T08:07:29.236Z,10.93
2023-04-01T08:09:48.886Z,11.03
2023-04-01T08:11:57.438Z,11.09
2023-04-01T08:14:08.535Z,11.07
2023-04-01T08:16:18.188Z,11.33
2023-04-01T08:18:26.745Z,11.08
2023-04-01T08:20:35.159Z,11.27
2023-04-01T08:22:43.139Z,10.91
2023-04-01T08:24:54.410Z,11.1
2023-04-01T08:27:02.110Z,11.15
2023-04-01T08:29:12.182Z,11.58
2023-04-01T08:31:26.162Z,11.86
2023-04-01T08:33:38.222Z,11.94
2023-04-01T08:35:48.279Z,11.73
2023-04-01T08:37:56.749Z,11.6
2023-04-01T08:40:12.890Z,11.63
2023-04-01T08:42:22.429Z,11.6
2023-04-01T08:44:32.907Z,11.55
2023-04-01T08:46:48.011Z,11.58
2023-04-01T08:48:59.583Z,11.51
2023-04-01T08:53:48.078Z,11.36
2023-04-01T08:55:58.194Z,11.19
2023-04-01T08:58:04.899Z,11.3
2023-04-01T09:00:20.754Z,11.38
2023-04-01T09:02:35.639Z,11.34
2023-04-01T09:04:45.035Z,11.18
2023-04-01T09:06:52.640Z,11.29
2023-04-01T09:09:02.429Z,11.28
2023-04-01T09:11:09.405Z,11.54
2023-04-01T09:13:16.324Z,11.87
2023-04-01T09:15:29.071Z,12.44
2023-04-01T09:17:38.363Z,12.61
2023-04-01T09:19:50.174Z,12.31
2023-04-01T09:22:00.531Z,12.55
2023-04-01T09:24:10.304Z,12.27
2023-04-01T09:26:20.880Z,12.06
2023-04-01T09:28:31.021Z,12.08
2023-04-01T09:30:41.470Z,12.17
2023-04-01T09:55:15.606Z,11.78
2023-04-01T10:01:16.252Z,11.71
2023-04-01T10:08:31.117Z,12.09
2023-04-01T10:13:50.789Z,12.57
2023-04-01T10:19:14.226Z,12.32
2023-04-01T10:21:36.829Z,12.57
2023-04-01T10:23:46.447Z,12.46
2023-04-01T10:29:04.060Z,12.81
2023-04-01T10:35:40.869Z,12.47
2023-04-01T10:38:56.892Z,12.81
2023-04-01T10:42:00.380Z,12.83
2023-04-01T10:44:35.839Z,13.02
2023-04-01T10:47:08.956Z,12.57
2023-04-01T10:49:40.569Z,12.34
2023-04-01T10:52:02.522Z,12.09
2023-04-01T10:54:16.870Z,11.98
2023-04-01T10:56:35.914Z,12
2023-04-01T10:59:04.365Z,11.89
2023-04-01T11:01:22.024Z,11.95
2023-04-01T11:03:34.181Z,11.93
2023-04-01T11:05:57.412Z,12.06
2023-04-01T11:08:13.618Z,11.9
2023-04-01T11:10:29.693Z,11.44
2023-04-01T11:12:42.347Z,11.39
2023-04-01T11:15:13.375Z,11.2
2023-04-01T11:17:25.652Z,11.18
2023-04-01T11:22:32.024Z,10.69
2023-04-01T11:24:46.374Z,10.57
2023-04-01T11:27:16.219Z,10.49
2023-04-01T11:29:33.847Z,10.43
2023-04-01T11:32:16.831Z,10.31
2023-04-01T11:34:43.182Z,10.16
2023-04-01T11:37:08.404Z,10.15
2023-04-01T11:39:30.562Z,9.98
2023-04-01T11:42:00.914Z,9.81
2023-04-01T11:44:15.753Z,9.87
2023-04-01T11:46:26.864Z,9.82
2023-04-01T11:48:44.298Z,9.73
2023-04-01T11:51:01.911Z,9.85
2023-04-01T11:53:16.074Z,9.88
2023-04-01T11:55:26.828Z,10
2023-04-01T11:57:35.563Z,10.23
2023-04-01T11:59:47.753Z,10.38
2023-04-01T12:02:00.242Z,10.37
2023-04-01T12:04:18.130Z,10.51
2023-04-01T12:06:36.565Z,10.7
2023-04-01T12:08:55.398Z,10.83
2023-04-01T12:12:18.568Z,11.03
2023-04-01T12:14:33.067Z,10.99
2023-04-01T12:16:46.756Z,11.12
2023-04-01T12:19:06.067Z,10.88
2023-04-01T12:21:21.002Z,11.06
2023-04-01T12:23:33.724Z,11.17
2023-04-01T12:25:45.435Z,11.23
2023-04-01T12:27:58.697Z,11.34
2023-04-01T12:30:05.493Z,11.08
2023-04-01T12:32:12.755Z,11.21
2023-04-01T12:34:24.149Z,11.09
2023-04-01T12:36:31.996Z,10.92
2023-04-01T12:38:46.125Z,10.98
2023-04-01T12:40:58.412Z,11.11
2023-04-01T12:43:09.034Z,11.23
2023-04-01T12:45:20.709Z,11.25
2023-04-01T12:47:30.020Z,11.22
2023-04-01T12:49:40.603Z,11.43
2023-04-01T12:51:49.965Z,11.75
2023-04-01T12:53:58.430Z,11.57
2023-04-01T12:56:09.183Z,11.55
2023-04-01T12:58:20.278Z,11.6
2023-04-01T13:00:31.313Z,11.76
2023-04-01T13:02:39.744Z,11.42
2023-04-01T13:04:53.080Z,11.16
2023-04-01T13:07:01.566Z,11.28
2023-04-01T13:09:12.621Z,11.62
2023-04-01T13:11:21.238Z,11.73
2023-04-01T13:13:30.606Z,11.87
2023-04-01T13:18:16.106Z,12.17
2023-04-01T13:20:44.735Z,11.99
2023-04-01T13:23:38.060Z,12.4
2023-04-01T13:29:35.879Z,12.36
2023-04-01T13:31:48.794Z,12.35
2023-04-01T13:34:00.595Z,12.47
2023-04-01T13:43:06.482Z,12.95
2023-04-01T13:48:39.589Z,12.76
2023-04-01T13:50:54.732Z,12.86
2023-04-01T13:53:07.533Z,13.01
2023-04-01T13:55:15.290Z,12.92
2023-04-01T14:18:54.476Z,12.53
2023-04-01T14:21:10.180Z,12.52
2023-04-01T14:23:17.278Z,12.42
2023-04-01T14:25:26.304Z,12.23
2023-04-01T14:27:42.424Z,12.23
2023-04-01T14:29:51.613Z,12.32
2023-04-01T14:31:59.496Z,12.24
2023-04-01T14:34:06.051Z,12.31
2023-04-01T14:36:12.839Z,12.22
2023-04-01T14:38:24.786Z,12.32
2023-04-01T14:40:32.909Z,12.12
2023-04-01T14:42:40.302Z,12.14
2023-04-01T14:44:47.477Z,12.1
2023-04-01T14:46:56.366Z,11.94
2023-04-01T14:49:05.676Z,11.93
2023-04-01T14:51:16.221Z,11.82
2023-04-01T14:53:23.807Z,11.69
2023-04-01T14:55:30.988Z,11.51
2023-04-01T14:57:39.991Z,11.3
2023-04-01T14:59:48.475Z,11.15
2023-04-01T15:01:57.149Z,11.14
2023-04-01T15:04:05.319Z,11.04
2023-04-01T15:06:17.598Z,10.82
2023-04-01T15:08:25.552Z,10.67
2023-04-01T15:10:34.519Z,10.57
2023-04-01T15:12:42.557Z,10.56
2023-04-01T15:14:50.267Z,10.57
2023-04-01T15:16:59.266Z,10.58
2023-04-01T15:19:07.886Z,10.41
2023-04-01T15:21:16.682Z,10.41
2023-04-01T15:23:26.053Z,10.44
2023-04-01T15:25:37.827Z,10.47
2023-04-01T15:27:46.547Z,10.39
2023-04-01T15:29:57.645Z,10.38
2023-04-01T15:32:09.338Z,10.4
2023-04-01T15:34:17.084Z,10.47
2023-04-01T15:36:25.316Z,10.39
2023-04-01T15:38:35.077Z,10.28
2023-04-01T15:40:49.066Z,10.22
2023-04-01T15:42:59.298Z,10.23
2023-04-01T15:45:07.104Z,10.2
2023-04-01T15:47:15.852Z,10.14
2023-04-01T15:49:24.625Z,10.06
2023-04-01T15:51:34.205Z,10.03
2023-04-01T15:53:42.681Z,10.03
2023-04-01T15:55:54.626Z,9.98
2023-04-01T15:58:03.178Z,9.97
2023-04-01T16:00:11.136Z,9.84
2023-04-01T16:02:24.934Z,9.78
2023-04-01T16:04:37.073Z,9.85
2023-04-01T16:06:52.415Z,9.78
2023-04-01T16:09:02.655Z,9.75
2023-04-01T16:13:42.574Z,9.68
2023-04-01T16:15:54.732Z,9.64
2023-04-01T16:18:03.664Z,9.65
2023-04-01T16:20:11.978Z,9.6
2023-04-01T16:22:20.931Z,9.54
2023-04-01T16:24:31.395Z,9.59
2023-04-01T16:26:40.555Z,9.54
2023-04-01T16:28:51.548Z,9.49
2023-04-01T16:31:16.694Z,9.42
2023-04-01T16:33:48.019Z,9.32
2023-04-01T16:36:30.369Z,9.3
2023-04-01T16:38:46.342Z,9.3
2023-04-01T16:41:03.846Z,9.28
2023-04-01T16:46:51.574Z,9.19
2023-04-01T16:53:00.675Z,9.09
2023-04-01T17:02:22.249Z,9.15
2023-04-01T17:08:00.237Z,9.11
2023-04-01T17:13:43.236Z,9.15
2023-04-01T17:19:21.219Z,9
2023-04-01T17:25:00.670Z,9.03
2023-04-01T17:30:40.562Z,8.95
2023-04-01T17:36:20.562Z,8.98
2023-04-01T17:42:05.881Z,8.96
2023-04-01T17:44:19.496Z,8.91
2023-04-01T17:46:32.512Z,8.81
2023-04-01T17:48:43.427Z,8.8
2023-04-01T17:50:59.056Z,8.76
2023-04-01T17:53:09.917Z,8.72
2023-04-01T17:55:28.264Z,8.69
2023-04-01T17:57:41.215Z,8.65
2023-04-01T17:59:58.401Z,8.65
2023-04-01T18:02:13.741Z,8.68
2023-04-01T18:04:30.791Z,8.62
2023-04-01T18:06:49.446Z,8.57
2023-04-01T18:08:59.195Z,8.61
2023-04-01T18:11:13.196Z,8.6
2023-04-01T18:13:24.373Z,8.62
2023-04-01T18:15:35.945Z,8.6
2023-04-01T18:17:45.619Z,8.63
2023-04-01T18:20:00.293Z,8.62
2023-04-01T18:22:10.582Z,8.63
2023-04-01T18:27:40.506Z,8.6
2023-04-01T18:35:44.572Z,8.57
2023-04-01T18:38:22.004Z,8.58
2023-04-01T18:41:30.267Z,8.6
2023-04-01T18:43:43.843Z,8.58
2023-04-01T18:45:55.300Z,8.57
2023-04-01T18:48:11.748Z,8.57
2023-04-01T18:50:27.568Z,8.53
2023-04-01T18:52:41.874Z,8.56
2023-04-01T18:54:55.638Z,8.54
2023-04-01T18:57:07.450Z,8.53
2023-04-01T18:59:22.238Z,8.52
2023-04-01T19:01:34.269Z,8.52
2023-04-01T19:03:51.241Z,8.54
2023-04-01T19:06:06.533Z,8.53
2023-04-01T19:08:19.587Z,8.5
2023-04-01T19:10:31.396Z,8.44
2023-04-01T19:12:50.056Z,8.48
2023-04-01T19:15:02.450Z,8.5
2023-04-01T19:20:28.342Z,8.34
2023-04-01T19:22:52.122Z,8.34
2023-04-01T19:25:05.557Z,8.32
2023-04-01T19:27:27.625Z,8.26
2023-04-01T19:29:41.870Z,8.26
2023-04-01T19:31:57.268Z,8.23
2023-04-01T19:34:10.788Z,8.23
2023-04-01T19:36:26.624Z,8.19
2023-04-01T19:38:37.075Z,8.14
2023-04-01T19:40:54.151Z,8.14
2023-04-01T19:43:10.705Z,8.1
2023-04-01T19:45:24.484Z,8.14
2023-04-01T19:47:39.971Z,8.08
2023-04-01T19:50:00.488Z,8.08
2023-04-01T19:52:27.455Z,8.06
2023-04-01T19:54:40.730Z,8.09
2023-04-01T19:56:52.585Z,8.1
2023-04-01T19:59:03.362Z,8.07
2023-04-01T20:01:16.289Z,8.02
2023-04-01T20:03:38.719Z,8
2023-04-01T20:05:48.011Z,7.97
2023-04-01T20:07:58.499Z,8.01
2023-04-01T20:10:10.127Z,8.01
2023-04-01T20:12:21.073Z,7.95
2023-04-01T20:14:33.873Z,7.95
2023-04-01T20:16:46.644Z,7.93
2023-04-01T20:19:01.432Z,7.93
2023-04-01T20:21:56.272Z,7.93
2023-04-01T20:24:12.285Z,7.9
2023-04-01T20:26:28.482Z,7.91
2023-04-01T20:28:41.591Z,7.91
2023-04-01T20:30:52.856Z,7.91
2023-04-01T20:33:04.229Z,7.9
2023-04-01T20:35:16.060Z,7.89
2023-04-01T20:37:29.303Z,7.9
2023-04-01T20:42:18.812Z,7.8
2023-04-01T20:44:37.163Z,7.86
2023-04-01T20:46:49.348Z,7.86
2023-04-01T20:48:59.624Z,7.91
2023-04-01T20:51:10.170Z,7.86
2023-04-01T20:53:21.620Z,7.82
2023-04-01T20:55:30.946Z,7.82
2023-04-01T20:57:43.680Z,7.78
2023-04-01T20:59:54.952Z,7.8
2023-04-01T21:02:09.184Z,7.81
2023-04-01T21:04:17.092Z,7.81
2023-04-01T21:09:03.050Z,7.8
2023-04-01T21:11:12.473Z,7.82
2023-04-01T21:13:20.881Z,7.77
2023-04-01T21:15:29.818Z,7.78
2023-04-01T21:17:41.910Z,7.82
2023-04-01T21:20:02.580Z,7.78
2023-04-01T21:22:20.269Z,7.72
2023-04-01T21:24:31.987Z,7.73
2023-04-01T21:26:46.142Z,7.71
2023-04-01T21:29:00.812Z,7.65
2023-04-01T21:31:12.051Z,7.6
2023-04-01T21:33:33.378Z,7.59
2023-04-01T21:35:50.937Z,7.54
2023-04-01T21:38:00.778Z,7.53
2023-04-01T21:40:08.682Z,7.55
2023-04-01T21:42:19.559Z,7.5
2023-04-01T21:44:35.884Z,7.5
2023-04-01T21:46:49.688Z,7.5
2023-04-01T21:49:14.674Z,7.46
2023-04-01T21:53:55.282Z,7.44
2023-04-01T21:56:07.228Z,7.43
2023-04-01T21:58:16.665Z,7.38
2023-04-01T22:00:30.854Z,7.29
2023-04-01T22:02:47.115Z,7.3
2023-04-01T22:05:01.339Z,7.23
2023-04-01T22:07:08.862Z,7.15
2023-04-01T22:09:26.852Z,7.19
2023-04-01T22:11:36.970Z,7.2
2023-04-01T22:13:56.622Z,7.1
2023-04-01T22:16:10.714Z,7.09
2023-04-01T22:18:25.654Z,7.04
2023-04-01T22:20:42.943Z,7.06
2023-04-01T22:23:04.656Z,7.03
2023-04-01T22:25:15.020Z,7.04
2023-04-01T22:27:31.086Z,7.03
2023-04-01T22:29:54.646Z,7
2023-04-01T22:32:16.284Z,7
2023-04-01T22:34:38.302Z,6.96
2023-04-01T22:36:55.733Z,6.94
2023-04-01T22:39:09.400Z,6.95
2023-04-01T22:41:24.643Z,6.91
2023-04-01T22:43:37.922Z,6.96
2023-04-01T22:45:49.232Z,6.92
2023-04-01T22:48:32.021Z,6.95
2023-04-01T22:50:45.501Z,6.94
2023-04-01T22:52:55.695Z,6.93
2023-04-01T22:55:09.347Z,6.95
2023-04-01T22:57:18.743Z,6.89
2023-04-01T22:59:28.866Z,6.91
2023-04-01T23:01:47.100Z,6.9
2023-04-01T23:04:05.573Z,6.88
2023-04-01T23:06:30.491Z,6.9
2023-04-01T23:08:45.912Z,6.92
2023-04-01T23:11:08.080Z,6.91
2023-04-01T23:13:26.546Z,6.93
2023-04-01T23:15:33.902Z,6.86
2023-04-01T23:17:56.269Z,6.83
2023-04-01T23:20:20.562Z,6.88
2023-04-01T23:22:49.157Z,6.86
2023-04-01T23:25:00.442Z,6.87
2023-04-01T23:27:13.835Z,6.85
2023-04-01T23:29:20.606Z,6.8
2023-04-01T23:31:30.559Z,6.75
2023-04-01T23:33:41.969Z,6.78
2023-04-01T23:35:49.608Z,6.76
2023-04-01T23:37:57.441Z,6.76
2023-04-01T23:40:05.898Z,6.78
2023-04-01T23:42:18.504Z,6.73
2023-04-01T23:44:25.317Z,6.71
2023-04-01T23:46:40.208Z,6.72
2023-04-01T23:48:54.461Z,6.72
2023-04-01T23:51:04.723Z,6.62
2023-04-01T23:53:12.611Z,6.65
2023-04-01T23:55:23.723Z,6.62
2023-04-01T23:57:30.293Z,6.58
2023-04-01T23:59:39.394Z,6.53
